Time;durP1;ratioP1;P1;durP2;ratioP2;P2;SDS_P1;SDS_P2;PMS_P1;PMS_P2;Temp;Humidity;BMP_temperature;BMP_pressure;BME280_temperature;BME280_humidity;BME280_pressure;Samples;Min_cycle;Max_cycle;Signal;HPM_P1;HPM_P2
2022/05/28 00:01:19;;;;;;;4.25;1.05;;;;;;;11.02;59.35;101015.50;5049647;28;21547;-69
2022/05/28 00:03:46;;;;;;;4.43;1.15;;;;;;;10.91;59.12;101013.00;5048094;28;20037;-69
2022/05/28 00:06:14;;;;;;;2.50;1.00;;;;;;;10.80;59.29;101014.84;5046105;28;20044;-69
2022/05/28 00:08:40;;;;;;;1.85;0.85;;;;;;;10.72;59.28;101006.75;5044206;28;20029;-69
2022/05/28 00:11:23;;;;;;;4.47;1.10;;;;;;;10.63;59.71;101013.75;5046601;28;20060;-69
2022/05/28 00:13:50;;;;;;;4.75;1.10;;;;;;;10.54;60.07;101017.22;5047778;28;20036;-69
2022/05/28 00:16:16;;;;;;;3.33;1.20;;;;;;;10.47;60.41;101020.56;5048916;28;20120;-71
2022/05/28 00:18:41;;;;;;;4.78;1.20;;;;;;;10.41;60.84;101012.19;5047292;28;20029;-69
2022/05/28 00:21:08;;;;;;;3.33;1.17;;;;;;;10.39;60.84;101013.31;5046562;28;20405;-69
2022/05/28 00:23:35;;;;;;;3.00;1.20;;;;;;;10.34;61.10;101008.44;5045891;28;20087;-69
2022/05/28 00:26:01;;;;;;;6.65;1.42;;;;;;;10.32;60.79;101007.78;5045059;28;20044;-69
2022/05/28 00:28:26;;;;;;;4.03;1.20;;;;;;;10.28;60.72;101005.50;5050728;28;20033;-69
2022/05/28 00:30:52;;;;;;;3.05;1.00;;;;;;;10.21;61.00;100999.94;5047442;28;20040;-69
2022/05/28 00:33:17;;;;;;;2.47;1.00;;;;;;;10.10;61.60;101006.16;5046528;28;20306;-69
2022/05/28 00:35:42;;;;;;;2.72;0.90;;;;;;;10.03;61.57;101009.50;5046779;28;20037;-69
2022/05/28 00:38:08;;;;;;;3.92;1.00;;;;;;;9.94;61.90;101003.25;5046883;28;20037;-69
2022/05/28 00:40:33;;;;;;;3.30;1.10;;;;;;;9.85;61.98;101002.22;5046322;28;20493;-68
2022/05/28 00:43:00;;;;;;;1.98;0.90;;;;;;;9.78;62.79;101006.38;5047996;28;20041;-68
2022/05/28 00:45:26;;;;;;;2.83;1.20;;;;;;;9.69;62.83;101000.09;5049975;28;20452;-70
2022/05/28 00:47:55;;;;;;;2.88;1.23;;;;;;;9.63;63.61;101011.22;5053332;28;20090;-68
2022/05/28 00:50:21;;;;;;;4.18;1.33;;;;;;;9.56;63.61;101010.06;5050810;28;20520;-68
2022/05/28 00:52:46;;;;;;;3.55;1.10;;;;;;;9.52;63.61;101016.56;5051142;28;20033;-68
2022/05/28 00:55:12;;;;;;;3.78;1.00;;;;;;;9.45;63.64;101016.28;5049295;28;20151;-68
2022/05/28 00:57:40;;;;;;;5.20;1.10;;;;;;;9.39;63.57;101010.69;5049096;28;20036;-69
2022/05/28 01:00:10;;;;;;;2.05;1.10;;;;;;;9.34;63.48;101008.44;5050056;28;20033;-69
2022/05/28 01:02:51;;;;;;;2.08;1.00;;;;;;;9.28;63.61;101011.63;5053232;28;20037;-69
2022/05/28 01:05:34;;;;;;;4.18;1.33;;;;;;;9.21;63.92;101010.47;5050338;28;20041;-68
2022/05/28 01:08:11;;;;;;;1.77;0.80;;;;;;;9.17;63.72;101012.50;5051519;28;20072;-68
2022/05/28 01:11:13;;;;;;;2.33;1.00;;;;;;;9.13;64.11;101011.97;5051377;28;20087;-68
2022/05/28 01:13:50;;;;;;;3.88;1.10;;;;;;;9.09;64.71;101009.72;5051860;28;20036;-68
2022/05/28 01:16:24;;;;;;;2.38;1.15;;;;;;;9.05;64.44;101010.91;5051975;28;20040;-68
2022/05/28 01:19:01;;;;;;;2.10;0.95;;;;;;;9.01;64.51;101009.50;5051772;28;20041;-68
2022/05/28 01:21:34;;;;;;;3.67;1.10;;;;;;;8.93;65.01;101005.72;5049150;28;20057;-71
2022/05/28 01:24:16;;;;;;;2.75;1.10;;;;;;;8.88;65.39;101004.44;5049618;28;20025;-70
2022/05/28 01:27:12;;;;;;;2.20;1.10;;;;;;;8.84;65.87;101014.41;5049024;28;20045;-70
2022/05/28 01:29:43;;;;;;;4.07;1.35;;;;;;;8.78;66.45;101008.81;5051608;28;20028;-70
2022/05/28 01:32:10;;;;;;;3.95;1.40;;;;;;;8.74;66.98;101004.75;5051060;28;20132;-70
2022/05/28 01:34:37;;;;;;;3.05;1.45;;;;;;;8.69;67.67;101000.69;5064906;28;20040;-70
2022/05/28 01:37:03;;;;;;;4.30;1.38;;;;;;;8.65;67.21;100993.16;5047208;28;20037;-70
2022/05/28 01:39:30;;;;;;;3.08;1.02;;;;;;;8.58;67.10;100992.88;5050155;28;20397;-70
2022/05/28 01:41:56;;;;;;;1.85;1.10;;;;;;;8.56;67.53;100993.97;5050307;28;20041;-70
2022/05/28 01:44:23;;;;;;;2.80;0.95;;;;;;;8.52;67.40;101000.44;5048797;28;20063;-70
2022/05/28 01:46:50;;;;;;;1.75;1.00;;;;;;;8.46;67.43;100991.22;5051324;28;20033;-70
2022/05/28 01:49:19;;;;;;;3.22;1.13;;;;;;;8.43;67.29;100994.13;5052274;28;20549;-70
2022/05/28 01:51:51;;;;;;;2.60;1.10;;;;;;;8.37;67.41;100989.34;5047598;28;20060;-70
2022/05/28 01:54:18;;;;;;;3.50;1.10;;;;;;;8.33;67.58;100985.28;5047356;28;20125;-70
2022/05/28 01:56:48;;;;;;;1.77;1.00;;;;;;;8.32;67.56;100994.97;5049621;28;20363;-70
2022/05/28 01:59:18;;;;;;;1.80;1.00;;;;;;;8.25;67.78;100994.63;5049385;28;20040;-69
2022/05/28 02:01:44;;;;;;;3.47;1.20;;;;;;;8.23;67.84;100995.72;5047873;28;20029;-70
2022/05/28 02:04:10;;;;;;;2.53;0.98;;;;;;;8.18;67.70;100990.84;5047997;28;20488;-70
2022/05/28 02:06:36;;;;;;;1.25;0.80;;;;;;;8.17;67.64;100996.22;5048429;28;20136;-70
2022/05/28 02:09:14;;;;;;;3.15;1.15;;;;;;;8.14;68.28;100986.75;5048350;28;20509;-70
2022/05/28 02:11:58;;;;;;;4.00;1.30;;;;;;;8.11;68.40;100989.66;5048875;28;20090;-70
2022/05/28 02:14:31;;;;;;;4.15;1.38;;;;;;;8.07;68.48;100988.22;5047751;28;20049;-70
2022/05/28 02:17:22;;;;;;;2.30;0.90;;;;;;;8.03;68.58;100982.38;5041750;28;20365;-70
2022/05/28 02:19:58;;;;;;;2.08;0.98;;;;;;;8.01;68.30;100986.94;5045311;28;20045;-70
2022/05/28 02:22:34;;;;;;;1.23;0.77;;;;;;;7.96;68.46;100989.09;5044878;28;20152;-70
2022/05/28 02:25:07;;;;;;;2.22;0.88;;;;;;;7.96;68.29;100990.88;5045812;28;20449;-70
2022/05/28 02:27:35;;;;;;;1.35;0.85;;;;;;;7.93;68.42;100991.97;5051177;28;20414;-70
2022/05/28 02:30:02;;;;;;;1.20;0.65;;;;;;;7.89;68.50;100990.56;5048844;28;20029;-70
2022/05/28 02:32:27;;;;;;;2.72;1.20;;;;;;;7.86;68.69;100986.38;5047144;28;20044;-70
2022/05/28 02:34:53;;;;;;;3.15;1.10;;;;;;;7.86;68.57;100991.66;5052005;28;20041;-70
2022/05/28 02:37:24;;;;;;;2.03;0.93;;;;;;;7.88;69.19;100989.69;5048721;28;20063;-70
2022/05/28 02:39:50;;;;;;;3.40;1.20;;;;;;;7.84;69.38;100992.69;5048536;28;20127;-70
2022/05/28 02:42:16;;;;;;;3.13;1.13;;;;;;;7.79;69.17;100989.59;5049392;28;20041;-70
2022/05/28 02:44:41;;;;;;;1.80;1.00;;;;;;;7.72;69.58;100985.78;5052353;28;20571;-70
2022/05/28 02:47:07;;;;;;;2.08;1.00;;;;;;;7.67;69.47;100988.78;5050957;28;20043;-70
2022/05/28 02:49:32;;;;;;;3.38;1.17;;;;;;;7.62;70.22;100983.88;5052534;28;20369;-70
2022/05/28 02:52:03;;;;;;;2.38;1.25;;;;;;;7.59;70.16;100992.03;5050369;28;20029;-70
2022/05/28 02:54:29;;;;;;;3.08;1.30;;;;;;;7.54;70.60;100996.81;5048211;28;20033;-70
2022/05/28 02:56:54;;;;;;;3.67;1.08;;;;;;;7.51;70.56;100993.56;5048620;28;20033;-70
2022/05/28 02:59:20;;;;;;;2.85;1.10;;;;;;;7.48;70.49;100994.66;5047706;28;20633;-70
2022/05/28 03:01:45;;;;;;;3.10;1.10;;;;;;;7.45;70.45;100992.28;5049647;28;20585;-69
2022/05/28 03:04:10;;;;;;;2.08;1.02;;;;;;;7.42;70.72;101003.03;5045758;28;20310;-70
2022/05/28 03:06:37;;;;;;;2.55;1.05;;;;;;;7.40;70.73;101010.22;5046890;28;20034;-70
2022/05/28 03:09:04;;;;;;;2.03;0.90;;;;;;;7.40;70.66;101003.16;5048593;28;20068;-69
2022/05/28 03:11:30;;;;;;;2.67;1.30;;;;;;;7.43;70.65;101000.28;5048070;28;20035;-69
2022/05/28 03:13:55;;;;;;;1.92;1.10;;;;;;;7.48;70.95;101001.72;5050637;28;20029;-70
2022/05/28 03:16:20;;;;;;;2.10;1.02;;;;;;;7.43;71.02;100995.00;5048964;28;20095;-70
2022/05/28 03:18:46;;;;;;;2.03;1.10;;;;;;;7.41;70.99;101002.22;5053976;28;20417;-70
2022/05/28 03:21:11;;;;;;;3.42;1.33;;;;;;;7.36;71.44;101000.88;5055390;28;20033;-70
2022/05/28 03:23:37;;;;;;;3.75;1.30;;;;;;;7.33;71.89;100996.69;5047881;28;20090;-70
2022/05/28 03:26:12;;;;;;;2.83;1.20;;;;;;;7.33;71.81;100994.06;5047206;28;20116;-70
2022/05/28 03:28:37;;;;;;;4.10;1.40;;;;;;;7.30;71.96;100994.31;5048921;28;20036;-70
2022/05/28 03:31:03;;;;;;;2.65;1.13;;;;;;;7.27;72.13;100996.31;5047575;28;20421;-70
2022/05/28 03:33:28;;;;;;;3.22;1.33;;;;;;;7.26;72.05;101002.56;5052937;28;20036;-70
2022/05/28 03:35:53;;;;;;;3.50;1.67;;;;;;;7.26;72.21;101005.19;5047558;28;20096;-69
2022/05/28 03:38:19;;;;;;;1.83;1.20;;;;;;;7.25;72.13;101000.91;5046883;28;20569;-70
2022/05/28 03:40:44;;;;;;;2.78;1.27;;;;;;;7.26;72.19;101002.56;5047971;28;20029;-69
2022/05/28 03:43:09;;;;;;;3.17;1.17;;;;;;;7.28;71.93;101004.09;5047589;28;20547;-70
2022/05/28 03:45:35;;;;;;;2.08;0.70;;;;;;;7.33;72.07;100999.31;5048750;28;20029;-70
2022/05/28 03:48:03;;;;;;;2.65;1.13;;;;;;;7.32;72.19;101005.56;5047398;28;20044;-69
2022/05/28 03:50:29;;;;;;;2.40;1.10;;;;;;;7.31;72.31;101006.50;5047325;28;20371;-70
2022/05/28 03:52:54;;;;;;;4.88;1.10;;;;;;;7.35;72.02;100999.22;5048327;28;20094;-70
2022/05/28 03:55:19;;;;;;;2.85;1.00;;;;;;;7.38;72.21;101001.59;5046868;28;20037;-70
2022/05/28 03:57:46;;;;;;;2.25;1.08;;;;;;;7.40;72.53;101016.31;5048228;28;20461;-70
2022/05/28 04:00:13;;;;;;;2.63;1.00;;;;;;;7.41;72.62;101025.88;5047112;28;20490;-70
2022/05/28 04:02:38;;;;;;;2.75;1.10;;;;;;;7.42;72.58;101022.28;5047704;28;20044;-70
2022/05/28 04:05:04;;;;;;;1.60;1.02;;;;;;;7.43;72.70;101026.59;5047726;28;20044;-70
2022/05/28 04:07:29;;;;;;;1.95;1.05;;;;;;;7.44;72.65;101030.06;5049977;28;20045;-70
2022/05/28 04:09:54;;;;;;;1.85;1.02;;;;;;;7.48;72.76;101022.75;5041565;28;20094;-70
2022/05/28 04:12:20;;;;;;;2.40;1.13;;;;;;;7.51;72.95;101028.63;5048272;28;20037;-70
2022/05/28 04:14:46;;;;;;;2.67;1.48;;;;;;;7.54;73.13;101025.75;5049338;28;20052;-70
2022/05/28 04:17:12;;;;;;;3.83;1.20;;;;;;;7.59;73.20;101028.03;5047599;28;20060;-70
2022/05/28 04:19:37;;;;;;;1.42;1.10;;;;;;;7.65;73.11;101028.41;5048245;28;20032;-70
2022/05/28 04:22:03;;;;;;;2.05;0.90;;;;;;;7.72;73.06;101026.09;5048664;28;20114;-69
2022/05/28 04:24:29;;;;;;;2.17;0.90;;;;;;;7.82;73.11;101034.97;5049694;28;20053;-70
2022/05/28 04:26:54;;;;;;;1.35;0.80;;;;;;;7.93;73.00;101028.00;5047195;28;20091;-70
2022/05/28 04:29:20;;;;;;;2.63;1.13;;;;;;;8.05;72.65;101035.75;5048421;28;20375;-70
2022/05/28 04:31:45;;;;;;;2.15;0.90;;;;;;;8.17;72.23;101030.47;5049320;28;20033;-70
2022/05/28 04:34:10;;;;;;;5.38;1.30;;;;;;;8.25;72.21;101025.44;5048465;28;20416;-70
2022/05/28 04:36:36;;;;;;;2.78;1.33;;;;;;;8.34;72.07;101031.72;5048808;28;20044;-70
2022/05/28 04:39:01;;;;;;;3.00;1.10;;;;;;;8.43;71.96;101028.38;5050603;28;20105;-70
2022/05/28 04:41:27;;;;;;;3.03;1.40;;;;;;;8.48;71.80;101032.28;5048906;28;20033;-70
2022/05/28 04:43:52;;;;;;;3.75;1.50;;;;;;;8.56;72.05;101036.97;5048140;28;20021;-70
2022/05/28 04:46:17;;;;;;;3.78;1.40;;;;;;;8.63;71.64;101032.84;5046073;28;20071;-70
2022/05/28 04:48:43;;;;;;;4.10;1.77;;;;;;;8.71;71.62;101037.50;5046523;28;20033;-70
2022/05/28 04:51:09;;;;;;;4.90;1.35;;;;;;;8.78;71.33;101030.75;5046858;28;20045;-70
2022/05/28 04:53:34;;;;;;;3.33;1.25;;;;;;;8.87;71.14;101045.81;5048015;28;20522;-70
2022/05/28 04:55:59;;;;;;;1.90;1.20;;;;;;;8.98;70.95;101038.78;5047406;28;20040;-70
2022/05/28 04:58:27;;;;;;;3.33;1.33;;;;;;;9.09;70.89;101039.56;5046384;28;20048;-70
2022/05/28 05:00:53;;;;;;;4.80;1.67;;;;;;;9.23;70.61;101032.28;5047351;28;20401;-70
2022/05/28 05:03:18;;;;;;;3.33;1.40;;;;;;;9.36;70.21;101033.72;5046549;28;20033;-70
2022/05/28 05:05:44;;;;;;;3.22;1.20;;;;;;;9.48;69.84;101029.19;5047560;28;20033;-70
2022/05/28 05:08:09;;;;;;;3.70;1.27;;;;;;;9.60;69.70;101039.66;5049272;28;20037;-70
2022/05/28 05:10:35;;;;;;;2.83;1.35;;;;;;;9.65;70.46;101038.28;5049685;28;20049;-70
2022/05/28 05:13:01;;;;;;;6.55;1.90;;;;;;;9.72;69.60;101033.31;5049437;28;20474;-70
2022/05/28 05:15:27;;;;;;;3.47;1.30;;;;;;;9.82;69.85;101036.84;5047618;28;20112;-70
2022/05/28 05:17:52;;;;;;;5.78;1.38;;;;;;;9.90;69.69;101041.44;5047542;28;20029;-70
2022/05/28 05:20:18;;;;;;;4.32;1.70;;;;;;;9.97;69.12;101046.06;5050534;28;20104;-70
2022/05/28 05:22:43;;;;;;;4.15;1.50;;;;;;;10.11;69.14;101047.47;5047338;28;20516;-70
2022/05/28 05:25:12;;;;;;;2.63;1.20;;;;;;;10.26;68.84;101053.22;5046384;28;20088;-70
2022/05/28 05:27:37;;;;;;;2.58;1.20;;;;;;;10.39;68.68;101055.63;5045353;28;20497;-70
2022/05/28 05:30:03;;;;;;;1.85;0.98;;;;;;;10.56;68.50;101056.75;5046038;28;20120;-69
2022/05/28 05:32:29;;;;;;;3.67;1.20;;;;;;;10.71;67.64;101057.19;5053522;28;20057;-70
2022/05/28 05:34:54;;;;;;;3.97;1.25;;;;;;;10.91;67.27;101058.00;5051028;28;20069;-70
2022/05/28 05:37:20;;;;;;;3.00;1.00;;;;;;;11.08;67.23;101057.25;5051472;28;20047;-70
2022/05/28 05:39:46;;;;;;;4.85;1.20;;;;;;;11.25;66.76;101055.72;5052726;28;20041;-70
2022/05/28 05:42:11;;;;;;;2.67;1.15;;;;;;;11.60;66.13;101051.56;5051831;28;20651;-70
2022/05/28 05:44:38;;;;;;;3.30;1.15;;;;;;;12.17;64.65;101057.56;5050495;28;20037;-70
2022/05/28 05:47:05;;;;;;;3.15;1.40;;;;;;;12.68;63.87;101052.59;5050187;28;20067;-70
2022/05/28 05:49:30;;;;;;;6.30;1.23;;;;;;;13.27;63.32;101064.34;5047394;28;20032;-70
2022/05/28 05:51:56;;;;;;;4.53;1.30;;;;;;;13.75;61.83;101059.47;5051372;28;20529;-70
2022/05/28 05:54:24;;;;;;;3.20;1.30;;;;;;;14.15;60.77;101057.94;5049539;28;20569;-71
2022/05/28 05:56:50;;;;;;;4.75;1.55;;;;;;;14.35;59.16;101061.16;5050726;28;20452;-71
2022/05/28 05:59:15;;;;;;;6.00;1.40;;;;;;;14.66;57.88;101045.44;5049648;28;20041;-70
2022/05/28 06:01:41;;;;;;;3.05;1.15;;;;;;;14.71;57.27;101056.41;5050822;28;20600;-71
2022/05/28 06:04:07;;;;;;;3.33;1.17;;;;;;;14.72;56.94;101054.59;5049288;28;20021;-71
2022/05/28 06:06:32;;;;;;;4.40;1.42;;;;;;;15.17;56.82;101055.91;5050720;28;20080;-71
2022/05/28 06:08:58;;;;;;;3.58;1.45;;;;;;;15.68;56.34;101053.75;5051672;28;20052;-70
2022/05/28 06:11:23;;;;;;;2.70;0.98;;;;;;;16.06;55.71;101060.13;5053391;28;20033;-71
2022/05/28 06:13:48;;;;;;;4.07;1.00;;;;;;;16.19;54.94;101048.88;5052341;28;20556;-71
2022/05/28 06:16:14;;;;;;;3.92;1.23;;;;;;;16.61;52.95;101060.13;5046707;28;20241;-71
2022/05/28 06:18:39;;;;;;;3.70;1.20;;;;;;;16.95;52.20;101060.53;5051305;28;20037;-71
2022/05/28 06:21:05;;;;;;;3.87;1.10;;;;;;;17.52;50.92;101061.81;5054113;28;20562;-71
2022/05/28 06:23:31;;;;;;;7.15;1.95;;;;;;;17.45;48.37;101057.38;5049891;28;20454;-71
2022/05/28 06:25:56;;;;;;;3.72;1.33;;;;;;;17.32;49.78;101055.34;5048911;28;20072;-70
2022/05/28 06:28:22;;;;;;;3.70;1.20;;;;;;;17.40;49.92;101052.59;5049433;28;20069;-71
2022/05/28 06:30:49;;;;;;;5.22;1.70;;;;;;;17.40;48.42;101061.44;5048344;28;20040;-71
2022/05/28 06:33:15;;;;;;;3.45;1.33;;;;;;;17.26;48.56;101054.25;5049089;28;19922;-70
2022/05/28 06:35:41;;;;;;;5.47;1.40;;;;;;;17.12;48.27;101055.88;5050712;28;20037;-70
2022/05/28 06:38:06;;;;;;;5.40;1.52;;;;;;;17.22;47.86;101062.81;5048577;28;20033;-71
2022/05/28 06:40:33;;;;;;;6.38;1.73;;;;;;;17.13;48.26;101056.69;5052002;28;20537;-70
2022/05/28 06:42:59;;;;;;;3.15;1.40;;;;;;;17.06;48.69;101056.59;5052635;28;20060;-70
2022/05/28 06:45:25;;;;;;;3.28;1.20;;;;;;;16.83;48.17;101053.13;5051554;28;20532;-70
2022/05/28 06:47:50;;;;;;;4.13;1.42;;;;;;;16.51;48.69;101047.00;5052272;28;20037;-70
2022/05/28 06:53:02;;;;;;;5.90;1.20;;;;;;;16.75;47.80;101045.97;5046994;28;20122;-71
2022/05/28 06:55:28;;;;;;;4.32;1.40;;;;;;;16.86;47.68;101050.13;5049008;28;20113;-71
2022/05/28 06:57:54;;;;;;;3.70;1.35;;;;;;;16.94;47.65;101042.00;5048658;28;20497;-70
2022/05/28 07:00:19;;;;;;;3.53;1.42;;;;;;;17.00;47.35;101045.81;5047930;28;20036;-71
2022/05/28 07:02:45;;;;;;;3.55;1.38;;;;;;;17.06;47.15;101040.56;5051822;28;20163;-70
2022/05/28 07:05:11;;;;;;;4.70;1.30;;;;;;;17.27;47.42;101050.53;5050740;28;20504;-70
2022/05/28 07:07:37;;;;;;;5.00;1.40;;;;;;;17.63;47.04;101039.13;5051703;28;20123;-70
2022/05/28 07:10:03;;;;;;;1.90;1.00;;;;;;;17.96;47.08;101047.59;5051307;28;20519;-71
2022/05/28 07:12:28;;;;;;;4.20;1.20;;;;;;;18.14;46.94;101039.16;5056373;28;20040;-71
2022/05/28 07:14:53;;;;;;;3.85;0.98;;;;;;;18.40;46.51;101040.44;5051399;28;20488;-71
2022/05/28 07:17:19;;;;;;;3.25;1.25;;;;;;;18.84;45.69;101034.91;5048744;28;20099;-70
2022/05/28 07:19:44;;;;;;;3.85;1.20;;;;;;;19.15;45.19;101040.94;5048840;28;20182;-71
2022/05/28 07:22:10;;;;;;;3.72;1.13;;;;;;;19.01;42.23;101040.81;5046925;28;20040;-71
2022/05/28 07:24:35;;;;;;;3.15;1.10;;;;;;;19.35;41.55;101033.00;5049539;28;20440;-71
2022/05/28 07:27:00;;;;;;;3.10;1.20;;;;;;;19.93;42.51;101042.41;5048256;28;20037;-71
2022/05/28 07:29:26;;;;;;;5.03;1.30;;;;;;;20.11;41.23;101041.81;5049052;28;20187;-71
2022/05/28 07:31:51;;;;;;;4.38;0.98;;;;;;;20.32;40.34;101040.03;5049177;28;20056;-71
2022/05/28 07:34:16;;;;;;;5.70;1.30;;;;;;;20.75;38.34;101037.00;5048670;28;20068;-71
2022/05/28 07:36:42;;;;;;;4.85;1.25;;;;;;;20.87;39.42;101029.16;5052120;28;20476;-71
2022/05/28 07:39:07;;;;;;;3.53;0.90;;;;;;;21.31;40.17;101031.19;5048263;28;20040;-71
2022/05/28 07:41:32;;;;;;;4.20;1.08;;;;;;;21.82;39.80;101033.09;5047566;28;20470;-71
2022/05/28 07:43:58;;;;;;;4.28;1.20;;;;;;;22.17;38.00;101031.91;5044477;28;20056;-69
2022/05/28 07:46:29;;;;;;;5.05;1.17;;;;;;;22.47;38.08;101030.25;5047927;28;20087;-69
2022/05/28 07:48:56;;;;;;;3.70;1.05;;;;;;;22.81;37.12;101020.06;5055406;28;20074;-69
2022/05/28 07:51:22;;;;;;;4.70;1.13;;;;;;;23.20;36.28;101012.66;5054405;28;20096;-69
2022/05/28 07:53:48;;;;;;;4.68;1.23;;;;;;;23.46;35.86;101006.16;5049173;28;20067;-71
2022/05/28 07:56:14;;;;;;;2.55;1.02;;;;;;;23.56;35.47;101013.72;5049289;28;20479;-69
2022/05/28 07:58:40;;;;;;;5.97;1.27;;;;;;;23.69;34.60;101016.28;5047581;28;20116;-69
2022/05/28 08:01:06;;;;;;;3.75;1.27;;;;;;;23.24;33.67;101010.34;5050194;28;20140;-68
2022/05/28 08:03:32;;;;;;;3.92;1.20;;;;;;;22.73;33.19;101001.47;5050639;28;20119;-71
2022/05/28 08:05:58;;;;;;;3.60;1.00;;;;;;;22.89;34.09;101008.19;5050531;28;20454;-71
2022/05/28 08:08:27;;;;;;;5.78;1.23;;;;;;;23.37;33.52;101007.50;5049681;28;20029;-69
2022/05/28 08:10:52;;;;;;;4.32;1.30;;;;;;;23.92;33.30;101003.94;5050337;28;20564;-69
2022/05/28 08:13:22;;;;;;;3.78;1.27;;;;;;;24.14;32.73;100998.84;5050593;28;20053;-68
2022/05/28 08:15:50;;;;;;;4.37;1.30;;;;;;;24.88;31.43;100996.66;5050093;28;20696;-69
2022/05/28 08:18:18;;;;;;;3.13;1.00;;;;;;;24.74;31.70;100998.78;5057880;28;20246;-69
2022/05/28 08:23:28;;;;;;;2.90;1.23;;;;;;;24.49;30.65;100998.97;5054730;28;20124;-69
2022/05/28 08:25:53;;;;;;;4.68;1.30;;;;;;;24.94;29.41;100986.78;5050308;28;20049;-69
2022/05/28 08:28:20;;;;;;;4.18;1.10;;;;;;;24.87;30.05;100989.59;5050287;28;20033;-69
2022/05/28 08:30:46;;;;;;;2.28;1.00;;;;;;;25.70;29.53;100992.22;5049914;28;20033;-69
2022/05/28 08:33:14;;;;;;;3.60;1.00;;;;;;;25.84;29.27;100988.16;5050225;28;20415;-70
2022/05/28 08:35:40;;;;;;;2.65;0.90;;;;;;;24.68;29.35;100985.38;5054647;28;20041;-69
2022/05/28 08:38:11;;;;;;;3.63;1.20;;;;;;;23.56;30.62;100983.22;5050028;28;20504;-69
2022/05/28 08:41:04;;;;;;;2.90;0.90;;;;;;;22.59;31.60;100989.13;5050213;28;20033;-71
2022/05/28 08:43:32;;;;;;;4.68;0.82;;;;;;;21.80;32.50;100985.91;5049960;28;20426;-69
2022/05/28 08:45:58;;;;;;;3.05;1.02;;;;;;;21.19;33.53;100987.16;5043395;28;20068;-71
2022/05/28 08:48:34;;;;;;;3.80;0.80;;;;;;;20.71;34.12;100987.38;5040695;28;20057;-69
2022/05/28 08:51:14;;;;;;;2.85;1.00;;;;;;;20.41;34.60;100993.16;5042970;28;20029;-68
2022/05/28 08:53:53;;;;;;;3.72;1.00;;;;;;;20.11;35.13;100987.31;5049391;28;20037;-69
2022/05/28 08:56:23;;;;;;;3.92;1.10;;;;;;;20.10;35.13;100986.50;5048964;28;20025;-69
2022/05/28 08:59:02;;;;;;;3.05;0.70;;;;;;;20.14;35.29;100982.38;5050266;28;20026;-69
2022/05/28 09:01:30;;;;;;;2.08;0.90;;;;;;;20.44;35.10;100976.63;5050612;28;20059;-69
2022/05/28 09:03:59;;;;;;;3.55;0.80;;;;;;;20.83;34.57;100977.66;5049497;28;20040;-69
2022/05/28 09:06:35;;;;;;;2.88;0.93;;;;;;;21.21;34.00;100977.81;5050384;28;20059;-69
2022/05/28 09:09:00;;;;;;;3.33;1.20;;;;;;;21.72;33.97;100981.59;5054011;28;20417;-69
2022/05/28 09:11:42;;;;;;;3.88;1.00;;;;;;;23.57;31.90;100999.16;5054542;28;20071;-69
2022/05/28 09:14:29;;;;;;;3.25;1.02;;;;;;;22.66;32.53;100969.16;5053415;28;20038;-69
2022/05/28 09:17:02;;;;;;;3.40;0.88;;;;;;;21.88;33.29;100977.59;5062325;28;20025;-69
2022/05/28 09:19:33;;;;;;;3.63;1.13;;;;;;;21.39;34.21;100971.78;5050399;28;20036;-69
2022/05/28 09:21:58;;;;;;;2.90;1.00;;;;;;;20.86;34.73;100971.06;5053899;28;20029;-71
2022/05/28 09:24:29;;;;;;;3.72;1.10;;;;;;;20.49;35.27;100976.81;5053094;28;20116;-69
2022/05/28 09:27:22;;;;;;;4.20;1.00;;;;;;;20.52;34.97;100973.75;5053570;28;20036;-68
2022/05/28 09:30:07;;;;;;;4.15;1.00;;;;;;;21.28;34.02;100976.97;5052510;28;20045;-69
2022/05/28 09:32:47;;;;;;;2.97;0.75;;;;;;;23.06;32.44;100965.31;5053090;28;20040;-69
2022/05/28 09:35:52;;;;;;;2.53;0.90;;;;;;;24.30;30.79;100957.66;5057945;28;20397;-69
2022/05/28 09:38:30;;;;;;;3.08;1.10;;;;;;;25.64;28.75;100954.16;5038110;28;20041;-70
2022/05/28 09:41:12;;;;;;;2.25;0.82;;;;;;;26.72;27.51;100950.66;5045634;28;20033;-70
2022/05/28 09:44:02;;;;;;;3.30;0.90;;;;;;;27.56;27.62;100949.56;5051130;28;20068;-70
2022/05/28 09:46:36;;;;;;;2.65;0.85;;;;;;;28.55;26.41;100944.78;5047070;28;20552;-70
2022/05/28 09:49:17;;;;;;;3.65;0.80;;;;;;;27.19;25.59;100938.50;5048090;28;20797;-70
2022/05/28 09:52:09;;;;;;;2.67;0.90;;;;;;;26.17;27.35;100940.50;5049265;28;20045;-69
2022/05/28 09:54:36;;;;;;;2.90;0.70;;;;;;;24.77;28.11;100940.69;5045222;28;20516;-70
2022/05/28 09:57:21;;;;;;;3.00;1.00;;;;;;;23.40;29.76;100944.16;5050719;28;20036;-69
2022/05/28 09:59:55;;;;;;;2.30;0.80;;;;;;;22.70;30.98;100942.59;5051616;28;20037;-69
2022/05/28 10:02:23;;;;;;;2.42;0.75;;;;;;;23.13;30.63;100935.56;5049005;28;20051;-69
2022/05/28 10:04:54;;;;;;;4.18;0.93;;;;;;;25.49;28.41;100926.81;5052780;28;20128;-69
2022/05/28 10:07:42;;;;;;;2.90;1.00;;;;;;;27.33;26.77;100924.31;5053405;28;20047;-71
2022/05/28 10:10:26;;;;;;;3.22;0.80;;;;;;;28.33;23.90;100918.50;5051055;28;20063;-70
2022/05/28 10:12:52;;;;;;;2.95;0.75;;;;;;;29.23;24.45;100916.88;5051970;28;20051;-70
2022/05/28 10:15:31;;;;;;;2.80;0.93;;;;;;;30.61;22.81;100925.22;5049117;28;20044;-70
2022/05/28 10:18:00;;;;;;;2.25;0.80;;;;;;;30.69;21.92;100906.34;5047103;28;20512;-70
2022/05/28 10:20:27;;;;;;;2.97;0.90;;;;;;;31.06;21.50;100899.72;5051544;28;20151;-70
2022/05/28 10:22:56;;;;;;;2.35;0.90;;;;;;;31.54;20.26;100899.22;5056013;28;20053;-70
2022/05/28 10:25:48;;;;;;;4.70;0.95;;;;;;;29.81;21.29;100902.03;5052311;28;20044;-70
2022/05/28 10:28:26;;;;;;;2.58;0.90;;;;;;;26.89;22.17;100901.75;5051426;28;20397;-70
2022/05/28 10:30:52;;;;;;;;;;;;;;;25.17;25.51;100900.19;5052656;28;20037;-69
2022/05/28 10:33:23;;;;;;;3.80;0.95;;;;;;;24.04;26.93;100895.94;5052043;28;19991;-69
2022/05/28 10:35:49;;;;;;;2.20;0.90;;;;;;;23.26;28.07;100895.75;5058456;28;20041;-69
2022/05/28 10:38:28;;;;;;;2.67;0.80;;;;;;;22.61;29.28;100896.22;5053643;28;20040;-69
2022/05/28 10:40:59;;;;;;;2.97;0.90;;;;;;;22.05;29.44;100907.88;5050201;28;20029;-69
2022/05/28 10:43:32;;;;;;;2.22;0.98;;;;;;;21.61;29.88;100894.25;5051018;28;20529;-69
2022/05/28 10:46:31;;;;;;;3.00;0.80;;;;;;;21.52;30.71;100894.72;5051511;28;20033;-69
2022/05/28 10:49:11;;;;;;;2.40;0.80;;;;;;;21.62;30.82;100901.31;5048695;28;20040;-69
2022/05/28 10:51:58;;;;;;;1.85;0.68;;;;;;;21.75;31.39;100903.09;5050547;28;20047;-69
2022/05/28 10:54:54;;;;;;;2.28;0.80;;;;;;;22.17;30.73;100902.63;5051153;28;20037;-69
2022/05/28 10:57:58;;;;;;;4.78;0.93;;;;;;;21.91;30.58;100893.69;5050981;28;20053;-69
2022/05/28 11:00:52;;;;;;;2.60;0.70;;;;;;;21.30;31.26;100883.44;5035334;28;20512;-69
2022/05/28 11:03:33;;;;;;;3.47;0.80;;;;;;;21.74;31.05;100879.91;5050771;28;20528;-69
2022/05/28 11:06:43;;;;;;;2.72;0.85;;;;;;;21.94;30.88;100878.97;5051209;28;20027;-69
2022/05/28 11:09:28;;;;;;;2.00;0.77;;;;;;;21.44;31.41;100878.84;5044946;28;20037;-69
2022/05/28 11:12:21;;;;;;;1.25;0.60;;;;;;;20.90;32.00;100876.31;5050963;28;20032;-69
2022/05/28 11:15:20;;;;;;;2.55;0.80;;;;;;;20.91;32.22;100867.25;5052586;28;20033;-69
2022/05/28 11:18:17;;;;;;;1.95;0.80;;;;;;;21.71;31.74;100864.19;5052876;28;20060;-69
2022/05/28 11:21:05;;;;;;;2.08;0.65;;;;;;;24.48;29.59;100856.75;5051724;28;20090;-69
2022/05/28 11:23:52;;;;;;;2.50;0.80;;;;;;;25.24;27.75;100861.31;5054322;28;20365;-69
2022/05/28 11:26:20;;;;;;;1.98;0.65;;;;;;;23.81;29.12;100862.44;5049794;28;20033;-69
2022/05/28 11:29:06;;;;;;;1.90;0.70;;;;;;;22.86;30.38;100857.63;5049298;28;20029;-69
2022/05/28 11:31:52;;;;;;;1.85;0.80;;;;;;;22.46;30.91;100852.66;5050170;28;20045;-69
2022/05/28 11:34:22;;;;;;;1.83;0.60;;;;;;;22.26;31.41;100848.28;5051077;28;20116;-69
2022/05/28 11:37:14;;;;;;;;;;;;;;;21.82;31.73;100841.97;5051242;28;20045;-69
2022/05/28 11:39:57;;;;;;;2.05;1.23;;;;;;;21.64;31.76;100841.88;5049118;28;19913;-69
2022/05/28 11:42:37;;;;;;;2.00;0.65;;;;;;;21.68;31.69;100831.50;5049793;28;20037;-69
2022/05/28 11:45:08;;;;;;;;;;;;;;;22.21;31.61;100831.94;5050545;28;20118;-69
2022/05/28 11:47:47;;;;;;;1.88;0.68;;;;;;;22.46;30.75;100837.28;5049428;28;20007;-69
2022/05/28 11:53:29;;;;;;;2.70;0.80;;;;;;;21.27;32.76;100822.81;5044859;28;20060;-69